Time;durP1;ratioP1;P1;durP2;ratioP2;P2;SDS_P1;SDS_P2;PMS_P1;PMS_P2;Temp;Humidity;BMP_temperature;BMP_pressure;BME280_temperature;BME280_humidity;BME280_pressure;Samples;Min_cycle;Max_cycle;Signal;HPM_P1;HPM_P2
2021/07/16 00:00:32;;;;;;;16.30;10.00;;;22.60;98.30;;;;;;4158529;28;20482;-83
2021/07/16 00:02:34;;;;;;;16.93;9.30;;;22.50;98.30;;;;;;4165161;28;20469;-83
2021/07/16 00:04:37;;;;;;;17.87;10.17;;;22.40;98.30;;;;;;4161524;28;20478;-82
2021/07/16 00:06:40;;;;;;;13.60;9.60;;;22.40;98.30;;;;;;4161710;28;20465;-83
2021/07/16 00:08:43;;;;;;;15.23;9.10;;;22.30;98.30;;;;;;4162295;28;20509;-83
2021/07/16 00:10:47;;;;;;;17.97;8.93;;;22.30;98.30;;;;;;4164958;28;20533;-83
2021/07/16 00:12:51;;;;;;;18.77;9.83;;;22.20;98.30;;;;;;4163829;28;20548;-83
2021/07/16 00:14:54;;;;;;;17.17;9.70;;;22.20;98.30;;;;;;4163252;28;20517;-84
2021/07/16 00:16:57;;;;;;;17.43;8.63;;;22.20;98.30;;;;;;4156852;28;20474;-83
2021/07/16 00:19:00;;;;;;;12.83;8.23;;;22.20;98.30;;;;;;4152884;28;20538;-84
2021/07/16 00:21:03;;;;;;;14.53;7.90;;;22.20;98.30;;;;;;4156149;28;20520;-83
2021/07/16 00:23:06;;;;;;;16.17;9.63;;;22.20;98.30;;;;;;4155453;28;20483;-83
2021/07/16 00:25:11;;;;;;;16.63;8.60;;;22.10;98.30;;;;;;4152848;28;20462;-83
2021/07/16 00:27:15;;;;;;;13.60;9.47;;;22.10;98.30;;;;;;4154929;28;20484;-83
2021/07/16 00:29:18;;;;;;;18.50;8.90;;;22.10;98.30;;;;;;4151369;28;20463;-83
2021/07/16 00:31:21;;;;;;;18.87;9.37;;;22.00;98.30;;;;;;4151928;28;20474;-83
2021/07/16 00:33:24;;;;;;;19.70;8.43;;;22.10;98.30;;;;;;4154705;28;20461;-83
2021/07/16 00:35:27;;;;;;;12.70;8.23;;;22.10;98.30;;;;;;4155193;28;20470;-83
2021/07/16 00:37:30;;;;;;;11.67;8.70;;;22.00;98.30;;;;;;4153294;28;20553;-83
2021/07/16 00:39:34;;;;;;;22.63;9.07;;;22.00;98.30;;;;;;4163499;28;20506;-84
2021/07/16 00:41:37;;;;;;;15.33;9.17;;;22.00;98.30;;;;;;4165175;28;20557;-83
2021/07/16 00:43:41;;;;;;;14.80;9.00;;;22.00;98.30;;;;;;4163841;28;20468;-83
2021/07/16 00:45:44;;;;;;;14.73;8.03;;;21.90;98.30;;;;;;4161747;28;20468;-83
2021/07/16 00:47:47;;;;;;;12.33;8.40;;;21.90;98.30;;;;;;4163325;28;20480;-83
2021/07/16 00:49:50;;;;;;;16.20;9.10;;;21.90;98.30;;;;;;4164992;28;20477;-83
2021/07/16 00:51:53;;;;;;;14.87;8.67;;;21.90;98.30;;;;;;4162765;28;20461;-83
2021/07/16 00:53:57;;;;;;;14.97;9.83;;;21.80;98.30;;;;;;4157528;28;20471;-83
2021/07/16 00:56:00;;;;;;;18.00;9.87;;;21.90;98.30;;;;;;4154222;28;20498;-83
2021/07/16 00:58:04;;;;;;;15.53;8.53;;;21.90;98.30;;;;;;4153555;28;20462;-83
2021/07/16 01:00:10;;;;;;;13.70;8.60;;;21.90;98.30;;;;;;4151131;28;20485;-83
2021/07/16 01:02:14;;;;;;;15.50;8.80;;;21.90;98.30;;;;;;4154154;28;20466;-82
2021/07/16 01:04:17;;;;;;;16.17;9.37;;;22.00;98.30;;;;;;4153550;28;20523;-83
2021/07/16 01:06:20;;;;;;;13.40;8.63;;;22.00;98.30;;;;;;4152298;28;20492;-83
2021/07/16 01:08:23;;;;;;;13.40;9.00;;;21.90;98.30;;;;;;4150466;28;20483;-83
2021/07/16 01:10:27;;;;;;;12.90;8.47;;;21.90;98.30;;;;;;4152090;28;20494;-83
2021/07/16 01:12:31;;;;;;;15.13;8.67;;;21.70;98.30;;;;;;4153278;28;20466;-83
2021/07/16 01:14:34;;;;;;;18.13;9.40;;;21.70;98.30;;;;;;4151160;28;20470;-84
2021/07/16 01:16:39;;;;;;;14.63;7.60;;;21.60;98.30;;;;;;4149038;28;20562;-83
2021/07/16 01:18:42;;;;;;;18.67;9.67;;;21.70;98.30;;;;;;4151661;28;20467;-83
2021/07/16 01:20:45;;;;;;;16.23;8.60;;;21.60;98.30;;;;;;4153978;28;20501;-83
2021/07/16 01:22:48;;;;;;;16.80;8.73;;;21.50;98.30;;;;;;4153989;28;20477;-82
2021/07/16 01:24:53;;;;;;;12.30;7.90;;;21.40;98.30;;;;;;4152136;28;20478;-83
2021/07/16 01:26:56;;;;;;;20.37;9.03;;;21.40;98.30;;;;;;4154176;28;20473;-83
2021/07/16 01:29:02;;;;;;;14.97;8.27;;;21.50;98.30;;;;;;4153186;28;20965;-82
2021/07/16 01:31:07;;;;;;;13.83;8.63;;;21.40;98.30;;;;;;4152785;28;20553;-83
2021/07/16 01:33:10;;;;;;;13.60;8.73;;;21.40;98.30;;;;;;4151712;28;20470;-82
2021/07/16 01:35:13;;;;;;;20.73;8.90;;;21.40;98.30;;;;;;4152356;28;20466;-82
2021/07/16 01:37:16;;;;;;;15.70;7.93;;;21.50;98.30;;;;;;4151698;28;20501;-83
2021/07/16 01:39:19;;;;;;;12.63;9.20;;;21.50;98.30;;;;;;4152074;28;20465;-83
2021/07/16 01:41:23;;;;;;;20.90;9.47;;;21.50;98.30;;;;;;4152896;28;20574;-82
2021/07/16 01:43:27;;;;;;;17.10;8.53;;;21.40;98.30;;;;;;4150917;28;20470;-83
2021/07/16 01:45:33;;;;;;;15.10;8.50;;;21.40;98.30;;;;;;4149277;28;20500;-83
2021/07/16 01:47:36;;;;;;;16.20;8.47;;;21.40;98.30;;;;;;4149439;28;20470;-83
2021/07/16 01:49:39;;;;;;;14.73;9.30;;;21.40;98.30;;;;;;4152284;28;20485;-83
2021/07/16 01:51:42;;;;;;;16.63;8.60;;;21.30;98.30;;;;;;4150923;28;20967;-83
2021/07/16 01:53:46;;;;;;;18.90;9.53;;;21.30;98.30;;;;;;4149905;28;20565;-83
2021/07/16 01:55:49;;;;;;;13.37;8.53;;;21.30;98.30;;;;;;4147888;28;20488;-82
2021/07/16 01:57:55;;;;;;;11.10;7.50;;;21.30;98.30;;;;;;4149179;28;20953;-83
2021/07/16 01:59:58;;;;;;;13.23;8.80;;;21.30;98.30;;;;;;4149530;28;20467;-82
2021/07/16 02:02:01;;;;;;;11.60;7.23;;;21.30;98.30;;;;;;4145676;28;20501;-83
2021/07/16 02:04:05;;;;;;;12.80;8.17;;;21.20;98.30;;;;;;4149042;28;20478;-82
2021/07/16 02:06:08;;;;;;;15.00;8.93;;;21.20;98.30;;;;;;4150042;28;20485;-83
2021/07/16 02:08:14;;;;;;;15.20;8.40;;;21.20;98.30;;;;;;4147279;28;20485;-83
2021/07/16 02:10:18;;;;;;;17.50;8.30;;;21.20;98.30;;;;;;4150028;28;20466;-83
2021/07/16 02:12:20;;;;;;;15.23;7.60;;;21.30;98.30;;;;;;4149564;28;20477;-82
2021/07/16 02:14:26;;;;;;;17.23;10.10;;;21.30;98.30;;;;;;4150274;28;20466;-83
2021/07/16 02:16:29;;;;;;;12.80;8.47;;;21.20;98.30;;;;;;4150994;28;20489;-82
2021/07/16 02:18:33;;;;;;;20.17;8.50;;;21.20;98.30;;;;;;4148041;28;20471;-82
2021/07/16 02:20:38;;;;;;;14.63;8.70;;;21.20;98.30;;;;;;4149866;28;21012;-82
2021/07/16 02:22:41;;;;;;;27.37;9.30;;;21.20;98.30;;;;;;4144685;28;20878;-82
2021/07/16 02:24:44;;;;;;;15.20;9.37;;;21.20;98.30;;;;;;4150459;28;20549;-82
2021/07/16 02:26:47;;;;;;;15.60;8.07;;;21.10;98.30;;;;;;4150771;28;20494;-83
2021/07/16 02:28:49;;;;;;;16.33;8.47;;;21.20;98.30;;;;;;4146464;28;20497;-82
2021/07/16 02:30:54;;;;;;;14.33;9.20;;;21.10;98.30;;;;;;4149342;28;20466;-83
2021/07/16 02:32:59;;;;;;;14.40;8.67;;;21.10;98.30;;;;;;4149525;28;20469;-82
2021/07/16 02:35:02;;;;;;;13.37;8.60;;;21.10;98.30;;;;;;4147914;28;20474;-83
2021/07/16 02:37:05;;;;;;;11.50;8.60;;;21.10;98.30;;;;;;4146312;28;21485;-82
2021/07/16 02:39:08;;;;;;;19.73;9.40;;;21.10;98.30;;;;;;4141286;28;20471;-82
2021/07/16 02:41:11;;;;;;;19.43;12.20;;;21.10;98.30;;;;;;4151021;28;20493;-83
2021/07/16 02:43:14;;;;;;;21.37;8.80;;;21.10;98.30;;;;;;4147424;28;20462;-82
2021/07/16 02:45:19;;;;;;;19.37;8.50;;;21.10;98.30;;;;;;4143168;28;20470;-82
2021/07/16 02:47:23;;;;;;;14.93;7.77;;;21.00;98.30;;;;;;4147716;28;20533;-83
2021/07/16 02:49:26;;;;;;;14.47;8.97;;;21.00;98.30;;;;;;4146593;28;20474;-82
2021/07/16 02:51:28;;;;;;;18.53;10.60;;;21.00;98.30;;;;;;4148009;28;20477;-83
2021/07/16 02:53:31;;;;;;;15.87;9.30;;;21.10;98.30;;;;;;4150390;28;20566;-82
2021/07/16 02:55:35;;;;;;;23.10;10.07;;;21.10;98.30;;;;;;4149076;28;20466;-82
2021/07/16 02:57:38;;;;;;;19.37;11.20;;;21.10;98.30;;;;;;4150599;28;20470;-82
2021/07/16 02:59:46;;;;;;;12.97;8.90;;;21.20;98.30;;;;;;4145819;28;21040;-83
2021/07/16 03:01:55;;;;;;;9.63;8.07;;;21.20;98.30;;;;;;4146936;28;20490;-82
2021/07/16 03:04:00;;;;;;;17.77;9.50;;;21.10;98.30;;;;;;4147557;28;20477;-82
2021/07/16 03:06:03;;;;;;;14.10;8.60;;;21.10;98.30;;;;;;4145481;28;20889;-82
2021/07/16 03:08:08;;;;;;;14.53;8.23;;;21.00;98.30;;;;;;4148831;28;20480;-83
2021/07/16 03:10:14;;;;;;;14.53;8.53;;;21.00;98.30;;;;;;4146848;28;20549;-82
2021/07/16 03:12:17;;;;;;;14.40;8.80;;;21.10;98.30;;;;;;4147488;28;20957;-83
2021/07/16 03:14:20;;;;;;;16.00;8.10;;;21.20;98.30;;;;;;4148855;28;20463;-83
2021/07/16 03:16:23;;;;;;;18.00;8.67;;;21.20;98.30;;;;;;4150701;28;20559;-83
2021/07/16 03:18:26;;;;;;;20.90;8.40;;;21.20;98.30;;;;;;4153321;28;20880;-83
2021/07/16 03:20:32;;;;;;;20.37;9.57;;;21.10;98.30;;;;;;4148964;28;20906;-83
2021/07/16 03:22:35;;;;;;;15.03;9.00;;;21.10;98.30;;;;;;4148691;28;20512;-82
2021/07/16 03:24:38;;;;;;;12.77;8.70;;;21.00;98.30;;;;;;4147289;28;20471;-82
2021/07/16 03:26:41;;;;;;;18.33;8.53;;;21.10;98.30;;;;;;4143203;28;21100;-83
2021/07/16 03:28:45;;;;;;;17.00;8.80;;;21.10;98.30;;;;;;4147797;28;20473;-83
2021/07/16 03:30:48;;;;;;;14.07;8.83;;;21.10;98.30;;;;;;4147348;28;20861;-83
2021/07/16 03:32:51;;;;;;;17.47;8.90;;;21.10;98.30;;;;;;4146872;28;20963;-83
2021/07/16 03:34:54;;;;;;;12.40;8.90;;;21.10;98.30;;;;;;4147901;28;20613;-83
2021/07/16 03:36:58;;;;;;;12.50;8.87;;;21.00;98.30;;;;;;4147473;28;20493;-83
2021/07/16 03:39:01;;;;;;;14.20;8.93;;;21.00;98.30;;;;;;4149523;28;20821;-83
2021/07/16 03:41:09;;;;;;;12.07;8.90;;;21.10;98.30;;;;;;4144451;28;20467;-83
2021/07/16 03:43:12;;;;;;;16.60;9.10;;;21.10;98.30;;;;;;4146970;28;21453;-83
2021/07/16 03:45:18;;;;;;;22.03;10.20;;;21.10;98.30;;;;;;4149091;28;20563;-83
2021/07/16 03:47:21;;;;;;;17.80;8.47;;;21.10;98.30;;;;;;4142805;28;21028;-82
2021/07/16 03:49:26;;;;;;;13.73;9.00;;;21.10;98.30;;;;;;4138922;28;20474;-82
2021/07/16 03:51:29;;;;;;;28.37;17.30;;;21.10;98.30;;;;;;4147855;28;20473;-82
2021/07/16 03:53:34;;;;;;;21.07;11.37;;;21.20;98.30;;;;;;4143309;28;20471;-83
2021/07/16 03:55:37;;;;;;;16.00;11.00;;;21.20;98.30;;;;;;4146482;28;20492;-83
2021/07/16 03:57:43;;;;;;;14.40;9.10;;;21.10;98.30;;;;;;4149945;28;20468;-83
2021/07/16 03:59:46;;;;;;;19.80;9.10;;;21.10;98.30;;;;;;4144810;28;20497;-83
2021/07/16 04:01:49;;;;;;;12.63;9.23;;;21.10;98.30;;;;;;4145303;28;20490;-83
2021/07/16 04:03:52;;;;;;;21.80;10.90;;;21.10;98.30;;;;;;4148675;28;20931;-82
2021/07/16 04:05:56;;;;;;;17.33;10.30;;;21.10;98.30;;;;;;4146809;28;20494;-82
2021/07/16 04:08:03;;;;;;;17.63;9.20;;;21.00;98.30;;;;;;4155888;28;20533;-82
2021/07/16 04:10:10;;;;;;;17.83;9.83;;;21.00;98.30;;;;;;4161915;28;20489;-83
2021/07/16 04:12:16;;;;;;;16.70;10.10;;;21.00;98.30;;;;;;4162147;28;20494;-83
2021/07/16 04:14:18;;;;;;;11.80;8.70;;;21.00;98.30;;;;;;4161669;28;20471;-82
2021/07/16 04:16:21;;;;;;;20.70;10.13;;;21.00;98.30;;;;;;4164593;28;20513;-82
2021/07/16 04:18:24;;;;;;;18.80;9.77;;;21.00;98.30;;;;;;4165167;28;20455;-82
2021/07/16 04:20:29;;;;;;;18.00;10.00;;;20.90;98.30;;;;;;4164376;28;20474;-84
2021/07/16 04:22:32;;;;;;;15.67;9.67;;;20.90;98.30;;;;;;4147515;28;20581;-80
2021/07/16 04:24:35;;;;;;;17.83;9.00;;;20.90;98.30;;;;;;4142292;28;20474;-70
2021/07/16 04:26:40;;;;;;;13.00;9.60;;;20.90;98.30;;;;;;4147215;28;20489;-70
2021/07/16 04:28:42;;;;;;;23.80;10.00;;;21.00;98.30;;;;;;4145399;28;21004;-71
2021/07/16 04:30:45;;;;;;;17.00;10.23;;;21.00;98.30;;;;;;4145753;28;20954;-71
2021/07/16 04:32:50;;;;;;;17.70;9.67;;;20.90;98.30;;;;;;4142805;28;20550;-72
2021/07/16 04:34:52;;;;;;;15.60;10.30;;;21.00;98.30;;;;;;4145368;28;20939;-71
2021/07/16 04:36:55;;;;;;;19.87;10.60;;;21.00;98.30;;;;;;4145488;28;20574;-72
2021/07/16 04:38:58;;;;;;;21.17;9.87;;;21.00;98.30;;;;;;4145097;28;20469;-73
2021/07/16 04:41:01;;;;;;;15.77;9.00;;;21.10;98.30;;;;;;4145453;28;20490;-72
2021/07/16 04:43:05;;;;;;;24.37;10.43;;;21.20;98.30;;;;;;4145244;28;20499;-71
2021/07/16 04:45:09;;;;;;;19.70;8.93;;;21.20;98.30;;;;;;4145099;28;20466;-71
2021/07/16 04:47:12;;;;;;;18.60;10.30;;;21.30;98.30;;;;;;4144001;28;20552;-71
2021/07/16 04:49:15;;;;;;;17.70;9.70;;;21.20;98.30;;;;;;4144659;28;20473;-72
2021/07/16 04:51:25;;;;;;;21.47;11.10;;;21.20;98.30;;;;;;4144938;28;20477;-72
2021/07/16 04:53:27;;;;;;;22.20;9.20;;;21.20;98.30;;;;;;4144283;28;20568;-71
2021/07/16 04:55:30;;;;;;;15.97;9.43;;;21.20;98.30;;;;;;4144259;28;20517;-71
2021/07/16 04:57:33;;;;;;;20.00;10.23;;;21.30;98.30;;;;;;4144294;28;20836;-72
2021/07/16 04:59:38;;;;;;;15.97;9.50;;;21.20;98.30;;;;;;4145160;28;20477;-72
2021/07/16 05:01:41;;;;;;;13.63;8.27;;;21.20;98.30;;;;;;4147148;28;20494;-72
2021/07/16 05:03:44;;;;;;;16.00;9.10;;;21.10;98.30;;;;;;4147541;28;20502;-71
2021/07/16 05:05:48;;;;;;;20.60;9.87;;;21.20;98.30;;;;;;4147631;28;20877;-72
2021/07/16 05:07:51;;;;;;;16.33;9.20;;;21.20;98.30;;;;;;4147341;28;20481;-71
2021/07/16 05:09:54;;;;;;;16.90;9.50;;;21.30;98.30;;;;;;4147368;28;20512;-72
2021/07/16 05:11:56;;;;;;;18.90;8.97;;;21.30;98.30;;;;;;4147545;28;20466;-72
2021/07/16 05:14:01;;;;;;;19.70;8.90;;;21.30;98.30;;;;;;4145805;28;20589;-72
2021/07/16 05:16:07;;;;;;;16.97;8.57;;;21.40;98.30;;;;;;4146602;28;20835;-72
2021/07/16 05:18:10;;;;;;;16.83;10.07;;;21.50;98.30;;;;;;4145988;28;20479;-72
2021/07/16 05:20:14;;;;;;;15.03;8.83;;;21.60;98.30;;;;;;4145298;28;21158;-72
2021/07/16 05:22:16;;;;;;;19.20;8.80;;;21.60;98.30;;;;;;4143689;28;20470;-72
2021/07/16 05:24:19;;;;;;;18.37;8.87;;;21.50;98.30;;;;;;4144178;28;20481;-72
2021/07/16 05:26:22;;;;;;;17.03;8.73;;;21.60;98.30;;;;;;4143302;28;20908;-72
2021/07/16 05:28:26;;;;;;;17.43;9.27;;;21.60;98.30;;;;;;4143660;28;20473;-72
2021/07/16 05:30:29;;;;;;;16.90;9.00;;;21.60;98.30;;;;;;4144200;28;20898;-72
2021/07/16 05:32:40;;;;;;;19.47;8.70;;;21.60;98.30;;;;;;4144974;28;20497;-72
2021/07/16 05:35:02;;;;;;;17.57;8.60;;;21.70;98.30;;;;;;4130083;28;20472;-72
2021/07/16 05:37:06;;;;;;;16.90;9.27;;;21.60;98.30;;;;;;4145736;28;20864;-72
2021/07/16 05:39:09;;;;;;;11.77;8.33;;;21.60;98.30;;;;;;4146772;28;20477;-72
2021/07/16 05:41:11;;;;;;;17.33;8.20;;;21.60;98.30;;;;;;4145930;28;20473;-72
2021/07/16 05:43:14;;;;;;;16.13;9.20;;;21.70;98.30;;;;;;4146761;28;20462;-72
2021/07/16 05:45:17;;;;;;;20.57;8.43;;;21.70;98.30;;;;;;4144665;28;20525;-72
2021/07/16 05:47:21;;;;;;;18.03;9.87;;;21.70;98.30;;;;;;4146439;28;20509;-72
2021/07/16 05:49:25;;;;;;;18.50;8.70;;;21.90;98.30;;;;;;4144851;28;20466;-72
2021/07/16 05:51:29;;;;;;;18.40;8.30;;;21.90;98.30;;;;;;4144784;28;20464;-72
2021/07/16 05:53:32;;;;;;;18.40;9.23;;;21.90;98.30;;;;;;4145797;28;20498;-72
2021/07/16 05:55:35;;;;;;;20.07;8.90;;;21.90;98.30;;;;;;4144940;28;20470;-72
2021/07/16 05:57:38;;;;;;;17.53;8.60;;;21.90;98.30;;;;;;4146123;28;20953;-72
2021/07/16 05:59:41;;;;;;;14.13;7.80;;;21.70;98.30;;;;;;4145233;28;20470;-72
2021/07/16 06:01:43;;;;;;;13.90;8.17;;;21.70;98.30;;;;;;4146517;28;20474;-72
2021/07/16 06:03:46;;;;;;;18.73;8.27;;;21.70;98.30;;;;;;4145175;28;20969;-72
2021/07/16 06:05:51;;;;;;;19.27;8.40;;;21.70;98.30;;;;;;4144696;28;21035;-72
2021/07/16 06:07:54;;;;;;;19.87;8.60;;;21.80;98.30;;;;;;4146913;28;20480;-72
2021/07/16 06:09:57;;;;;;;16.60;9.07;;;21.80;98.30;;;;;;4145653;28;20466;-72
2021/07/16 06:11:59;;;;;;;18.07;9.83;;;21.90;98.30;;;;;;4145873;28;20466;-73
2021/07/16 06:14:03;;;;;;;16.73;9.13;;;22.00;98.30;;;;;;4145928;28;20505;-72
2021/07/16 06:16:06;;;;;;;17.90;8.50;;;21.90;98.30;;;;;;4146343;28;20490;-72
2021/07/16 06:18:09;;;;;;;21.20;8.93;;;21.90;98.30;;;;;;4144965;28;20470;-71
2021/07/16 06:20:14;;;;;;;23.33;9.40;;;22.00;98.30;;;;;;4145381;28;20470;-72
2021/07/16 06:22:19;;;;;;;16.00;9.10;;;22.00;98.30;;;;;;4146544;28;20478;-72
2021/07/16 06:24:22;;;;;;;17.43;7.87;;;22.00;98.30;;;;;;4144940;28;20962;-72
2021/07/16 06:26:25;;;;;;;18.13;9.40;;;22.00;98.30;;;;;;4146438;28;20489;-72
2021/07/16 06:28:27;;;;;;;22.47;9.70;;;22.00;98.30;;;;;;4145210;28;20469;-72
2021/07/16 06:30:30;;;;;;;19.47;8.87;;;22.00;98.30;;;;;;4146689;28;20485;-72
2021/07/16 06:32:33;;;;;;;12.40;8.17;;;22.20;98.30;;;;;;4145034;28;20954;-73
2021/07/16 06:34:36;;;;;;;18.50;9.30;;;22.40;98.30;;;;;;4145066;28;20486;-71
2021/07/16 06:36:39;;;;;;;18.13;9.27;;;22.40;98.30;;;;;;4146001;28;20498;-71
2021/07/16 06:38:43;;;;;;;20.00;9.60;;;22.40;98.30;;;;;;4144472;28;20486;-72
2021/07/16 06:40:46;;;;;;;19.30;9.90;;;22.50;98.30;;;;;;4144199;28;20466;-73
2021/07/16 06:42:49;;;;;;;17.17;9.10;;;22.70;98.30;;;;;;4146541;28;20474;-72
2021/07/16 06:44:52;;;;;;;14.73;9.20;;;22.80;98.30;;;;;;4146452;28;20470;-72
2021/07/16 06:46:54;;;;;;;19.50;8.70;;;22.80;98.30;;;;;;4145214;28;20512;-73
2021/07/16 06:48:58;;;;;;;17.97;8.70;;;22.90;98.30;;;;;;4145182;28;20818;-72
2021/07/16 06:51:01;;;;;;;18.13;9.00;;;22.80;98.30;;;;;;4145996;28;20480;-73
2021/07/16 06:53:04;;;;;;;14.27;9.13;;;22.70;98.30;;;;;;4142854;28;20466;-74
2021/07/16 06:55:10;;;;;;;17.77;9.07;;;22.60;98.30;;;;;;4144036;28;20493;-74
2021/07/16 06:57:12;;;;;;;17.03;8.97;;;22.60;98.30;;;;;;4144578;28;20548;-75
2021/07/16 06:59:15;;;;;;;16.63;8.87;;;22.70;98.30;;;;;;4145308;28;20482;-75
2021/07/16 07:01:19;;;;;;;23.27;9.67;;;22.70;98.30;;;;;;4141016;28;20977;-74
2021/07/16 07:03:25;;;;;;;15.53;9.07;;;22.90;98.30;;;;;;4145644;28;20466;-75
2021/07/16 07:05:35;;;;;;;15.43;8.33;;;22.90;98.30;;;;;;4145041;28;20501;-74
2021/07/16 07:07:37;;;;;;;16.67;9.07;;;23.00;98.30;;;;;;4144964;28;20540;-75
2021/07/16 07:09:40;;;;;;;17.93;9.60;;;23.20;98.30;;;;;;4145208;28;20948;-75
2021/07/16 07:11:45;;;;;;;17.57;10.03;;;23.10;98.30;;;;;;4146151;28;20474;-74
2021/07/16 07:13:48;;;;;;;19.17;9.00;;;23.20;98.30;;;;;;4145527;28;20814;-74
2021/07/16 07:15:51;;;;;;;17.33;9.80;;;23.30;98.30;;;;;;4145310;28;20485;-75
2021/07/16 07:17:54;;;;;;;18.77;9.90;;;23.20;98.30;;;;;;4145842;28;20470;-73
2021/07/16 07:19:57;;;;;;;17.93;8.53;;;23.00;98.30;;;;;;4145570;28;20470;-73
2021/07/16 07:21:59;;;;;;;16.07;9.50;;;22.90;98.30;;;;;;4144371;28;20478;-74
2021/07/16 07:24:03;;;;;;;14.63;7.83;;;23.00;98.30;;;;;;4143443;28;20470;-74
2021/07/16 07:26:05;;;;;;;17.57;9.27;;;23.00;98.30;;;;;;4145654;28;21023;-74
2021/07/16 07:28:10;;;;;;;14.93;8.77;;;23.20;98.30;;;;;;4144369;28;20470;-75
2021/07/16 07:30:13;;;;;;;21.23;8.83;;;23.00;98.30;;;;;;4145685;28;20517;-74
2021/07/16 07:32:16;;;;;;;19.90;10.27;;;22.90;98.30;;;;;;4144634;28;20474;-75
2021/07/16 07:34:19;;;;;;;23.20;9.07;;;23.00;98.30;;;;;;4141961;28;20489;-74
2021/07/16 07:36:22;;;;;;;18.00;9.00;;;23.00;98.30;;;;;;4142023;28;20924;-74
2021/07/16 07:38:26;;;;;;;20.27;9.53;;;22.80;98.30;;;;;;4143273;28;21186;-73
2021/07/16 07:40:29;;;;;;;17.53;8.67;;;22.70;98.30;;;;;;4144096;28;20461;-74
2021/07/16 07:42:32;;;;;;;15.53;8.70;;;22.90;98.30;;;;;;4144891;28;20461;-75
2021/07/16 07:44:36;;;;;;;16.10;9.40;;;23.10;98.30;;;;;;4143510;28;20544;-74
2021/07/16 07:46:39;;;;;;;18.27;9.87;;;23.40;98.30;;;;;;4143941;28;20494;-74
2021/07/16 12:15:37;;;;;;;13.77;7.53;;;32.40;89.00;;;;;;4068739;29;20617;-85
2021/07/16 12:21:58;;;;;;;11.48;7.22;;;32.70;87.80;;;;;;4066124;29;20499;-86
2021/07/16 12:34:28;;;;;;;9.18;6.65;;;33.40;85.90;;;;;;4123845;28;20217;-85
2021/07/16 13:32:53;;;;;;;12.65;7.22;;;34.20;85.50;;;;;;3930153;30;20217;-85
2021/07/16 13:36:06;;;;;;;14.73;7.55;;;34.80;83.20;;;;;;3875091;30;20242;-87
2021/07/16 13:59:52;;;;;;;19.30;7.97;;;34.80;83.40;;;;;;3964742;29;20222;-86
